createdAt,value
2023-05-22T00:01:20.137Z,82.0826
2023-05-22T00:02:22.415Z,82.2733
2023-05-22T00:03:23.580Z,82.5467
2023-05-22T00:04:25.561Z,82.6064
2023-05-22T00:05:27.620Z,82.7282
2023-05-22T00:19:44.210Z,84.7843
2023-05-22T00:20:45.413Z,84.9752
2023-05-22T00:21:47.657Z,85.4975
2023-05-22T00:22:48.903Z,86.2060
2023-05-22T00:23:50.509Z,86.7200
2023-05-22T00:24:51.736Z,87.2089
2023-05-22T00:25:52.660Z,87.4174
2023-05-22T00:26:54.574Z,87.7614
2023-05-22T00:28:07.665Z,88.1179
2023-05-22T00:30:28.721Z,89.0664
2023-05-22T00:31:31.555Z,89.1981
2023-05-22T00:32:32.416Z,89.2272
2023-05-22T00:39:42.846Z,90.5222
2023-05-22T00:40:44.611Z,90.3352
2023-05-22T00:50:31.845Z,90.7802
2023-05-22T00:51:36.505Z,90.3230
2023-05-22T00:58:42.158Z,88.2161
2023-05-22T00:59:44.313Z,87.6603
2023-05-22T01:00:44.909Z,87.4055
2023-05-22T01:01:47.070Z,87.3572
2023-05-22T01:09:25.235Z,86.3499
2023-05-22T01:10:25.970Z,86.6318
2023-05-22T01:11:27.741Z,86.2872
2023-05-22T01:12:29.117Z,86.2308
2023-05-22T01:13:30.333Z,86.3238
2023-05-22T01:19:07.895Z,85.9774
2023-05-22T01:20:08.907Z,86.1896
2023-05-22T01:21:09.290Z,86.2181
2023-05-22T01:22:10.505Z,86.9194
2023-05-22T01:23:10.803Z,87.5361
2023-05-22T01:24:13.035Z,87.2618
2023-05-22T01:25:14.518Z,87.2701
2023-05-22T01:26:16.043Z,87.6044
2023-05-22T01:27:17.199Z,88.2174
2023-05-22T01:28:19.284Z,87.2902
2023-05-22T01:29:20.539Z,86.4065
2023-05-22T01:30:21.949Z,88.1039
2023-05-22T01:31:22.224Z,87.9723
2023-05-22T01:32:23.284Z,87.5616
2023-05-22T01:33:25.220Z,87.9071
2023-05-22T01:34:27.088Z,88.5758
2023-05-22T01:35:29.226Z,88.4787
2023-05-22T01:37:32.328Z,86.9517
2023-05-22T01:38:34.034Z,87.9801
2023-05-22T01:39:35.284Z,87.6549
2023-05-22T01:40:37.013Z,86.8212
2023-05-22T01:41:38.736Z,87.8103
2023-05-22T01:42:40.572Z,88.8967
2023-05-22T01:43:41.351Z,89.1805
2023-05-22T01:45:42.354Z,89.7056
2023-05-22T01:47:42.525Z,89.8409
2023-05-22T01:48:45.139Z,89.9325
2023-05-22T01:49:46.592Z,89.4282
2023-05-22T01:51:49.809Z,88.5713
2023-05-22T01:52:51.690Z,88.5335
2023-05-22T01:54:55.561Z,89.4492
2023-05-22T02:15:14.839Z,91.7924
2023-05-22T02:17:16.794Z,91.9706
2023-05-22T02:21:23.825Z,90.6011
2023-05-22T02:22:24.847Z,90.5910
2023-05-22T02:23:26.286Z,90.2127
2023-05-22T02:24:27.034Z,91.1140
2023-05-22T02:25:29.133Z,90.9826
2023-05-22T02:26:31.350Z,90.7807
2023-05-22T02:27:32.381Z,90.7149
2023-05-22T02:29:35.535Z,91.6332
2023-05-22T02:30:37.448Z,92.1333
2023-05-22T02:32:39.707Z,91.3746
2023-05-22T02:33:41.147Z,90.2566
2023-05-22T02:34:42.928Z,90.8101
2023-05-22T02:37:47.447Z,90.9111
2023-05-22T02:39:49.938Z,90.9959
2023-05-22T02:41:51.989Z,91.5333
2023-05-22T02:43:53.976Z,92.7006
2023-05-22T02:44:55.623Z,92.2335
2023-05-22T02:45:57.691Z,91.8991
2023-05-22T02:47:00.435Z,91.1154
2023-05-22T02:48:00.582Z,90.9621
2023-05-22T02:49:01.888Z,90.7109
2023-05-22T02:50:02.336Z,91.3512
2023-05-22T02:51:02.429Z,91.0589
2023-05-22T02:52:05.830Z,91.3114
2023-05-22T02:53:05.847Z,89.6935
2023-05-22T02:54:07.462Z,89.3428
2023-05-22T02:55:09.151Z,90.0833
2023-05-22T02:56:09.322Z,89.8411
2023-05-22T02:57:10.463Z,89.7121
2023-05-22T02:58:25.802Z,89.9884
2023-05-22T03:00:44.295Z,91.4965
2023-05-22T03:01:46.432Z,91.5404
2023-05-22T03:02:46.261Z,92.3299
2023-05-22T03:04:50.473Z,92.2201
2023-05-22T03:05:51.166Z,91.3061
2023-05-22T03:06:52.473Z,89.8356
2023-05-22T03:07:53.855Z,90.1526
2023-05-22T03:11:55.490Z,91.3852
2023-05-22T03:12:55.568Z,91.7816
2023-05-22T03:13:57.762Z,92.3939
2023-05-22T03:14:59.213Z,92.4093
2023-05-22T03:16:00.710Z,92.7799
2023-05-22T03:18:03.881Z,93.2560
2023-05-22T03:19:05.649Z,93.7553
2023-05-22T03:25:11.072Z,92.9418
2023-05-22T03:26:12.983Z,93.1729
2023-05-22T03:27:14.099Z,92.1608
2023-05-22T03:28:16.284Z,92.1563
2023-05-22T03:29:16.609Z,92.6242
2023-05-22T03:30:16.824Z,93.1223
2023-05-22T03:32:20.596Z,93.8289
2023-05-22T03:33:21.264Z,93.5884
2023-05-22T03:34:21.448Z,93.6987
2023-05-22T03:37:24.066Z,94.2274
2023-05-22T03:38:26.002Z,94.2065
2023-05-22T03:39:27.142Z,93.6434
2023-05-22T03:40:28.531Z,93.2232
2023-05-22T03:41:28.961Z,92.9088
2023-05-22T03:42:30.637Z,92.7962
2023-05-22T03:44:32.395Z,93.2012
2023-05-22T03:45:38.990Z,93.4828
2023-05-22T03:52:41.529Z,94.2054
2023-05-22T03:53:42.955Z,94.0918
2023-05-22T03:54:44.613Z,93.7868
2023-05-22T03:55:46.552Z,93.4852
2023-05-22T03:56:49.129Z,93.2319
2023-05-22T04:05:58.460Z,89.8811
2023-05-22T04:10:02.488Z,92.4136
2023-05-22T04:11:02.831Z,92.9738
2023-05-22T04:12:04.069Z,93.0668
2023-05-22T04:13:04.542Z,93.2670
2023-05-22T04:14:07.854Z,93.3624
2023-05-22T04:15:09.263Z,93.4251
2023-05-22T04:16:10.033Z,92.8685
2023-05-22T04:17:12.286Z,92.5244
2023-05-22T04:18:12.728Z,92.3320
2023-05-22T04:19:13.080Z,92.1677
2023-05-22T04:20:15.656Z,92.5452
2023-05-22T04:21:16.630Z,91.6599
2023-05-22T04:22:18.207Z,91.0281
2023-05-22T04:23:20.538Z,90.6301
2023-05-22T04:24:21.393Z,90.6110
2023-05-22T04:25:24.135Z,90.6877
2023-05-22T04:26:24.002Z,90.5559
2023-05-22T04:41:44.654Z,90.4726
2023-05-22T04:42:46.474Z,90.7511
2023-05-22T04:43:48.450Z,91.2988
2023-05-22T04:44:49.563Z,91.5598
2023-05-22T04:45:51.982Z,91.8152
2023-05-22T04:56:04.229Z,92.1611
2023-05-22T04:57:06.397Z,92.1996
2023-05-22T05:03:14.908Z,91.5381
2023-05-22T05:07:19.280Z,90.2981
2023-05-22T05:08:21.285Z,90.1112
2023-05-22T05:24:40.337Z,81.6861
2023-05-22T05:25:42.226Z,81.5259
2023-05-22T05:26:43.385Z,80.6334
2023-05-22T05:27:44.683Z,81.2017
2023-05-22T05:28:46.415Z,80.1059
2023-05-22T05:29:46.876Z,81.3885
2023-05-22T05:31:50.257Z,80.5926
2023-05-22T05:32:50.179Z,81.2895
2023-05-22T05:42:01.172Z,77.1133
2023-05-22T05:43:02.120Z,77.5923
2023-05-22T05:51:09.566Z,73.4052
2023-05-22T05:52:11.082Z,72.7549
2023-05-22T06:01:22.635Z,72.7071
2023-05-22T06:02:24.326Z,74.0306
2023-05-22T06:03:28.488Z,74.5464
2023-05-22T06:11:35.066Z,74.3489
2023-05-22T06:12:36.493Z,75.3161
2023-05-22T06:13:38.214Z,75.7294
2023-05-22T06:14:39.746Z,74.6181
2023-05-22T06:15:41.683Z,75.1428
2023-05-22T06:16:44.627Z,75.2831
2023-05-22T06:17:44.616Z,73.0325
2023-05-22T06:18:44.725Z,73.5649
2023-05-22T06:19:46.253Z,73.3817
2023-05-22T06:20:47.469Z,73.3549
2023-05-22T06:21:53.000Z,73.5215
2023-05-22T06:22:50.897Z,73.4675
2023-05-22T06:23:52.857Z,74.5822
2023-05-22T06:24:54.096Z,72.7518
2023-05-22T06:26:57.498Z,71.6726
2023-05-22T06:27:59.712Z,73.2160
2023-05-22T06:29:03.226Z,71.8575
2023-05-22T06:36:08.588Z,72.0576
2023-05-22T06:37:10.584Z,72.7535
2023-05-22T06:38:11.810Z,72.7202
2023-05-22T06:39:11.986Z,72.8152
2023-05-22T06:44:46.891Z,71.5649
2023-05-22T06:45:49.146Z,71.7533
2023-05-22T06:52:55.260Z,69.8239
2023-05-22T07:05:09.571Z,70.1429
2023-05-22T07:06:11.976Z,70.6235
2023-05-22T07:07:14.400Z,69.6920
2023-05-22T07:31:45.546Z,67.0464
2023-05-22T07:32:45.655Z,67.1882
2023-05-22T07:33:46.707Z,67.3936
2023-05-22T07:34:48.287Z,66.9045
2023-05-22T07:35:49.668Z,66.2098
2023-05-22T07:36:50.697Z,66.2246
2023-05-22T07:39:54.491Z,67.7559
2023-05-22T07:40:56.576Z,66.8745
2023-05-22T07:42:01.536Z,67.5144
2023-05-22T07:48:03.157Z,66.0856
2023-05-22T07:49:03.869Z,67.4388
2023-05-22T07:50:04.656Z,65.8761
2023-05-22T07:51:06.096Z,65.5683
2023-05-22T07:52:07.886Z,65.9827
2023-05-22T07:53:08.502Z,65.5869
2023-05-22T07:54:09.890Z,65.7088
2023-05-22T07:55:09.893Z,65.8637
2023-05-22T07:56:11.804Z,66.7652
2023-05-22T07:57:13.887Z,66.7470
2023-05-22T07:58:16.783Z,66.9292
2023-05-22T07:59:17.774Z,66.9593
2023-05-22T08:00:19.913Z,65.3901
2023-05-22T08:01:20.496Z,63.9641
2023-05-22T08:04:24.371Z,62.9016
2023-05-22T08:05:25.170Z,62.6704
2023-05-22T08:06:25.570Z,62.8138
2023-05-22T08:07:27.567Z,62.7309
2023-05-22T08:08:32.250Z,62.9512
2023-05-22T08:29:30.828Z,59.5935
2023-05-22T08:30:31.084Z,59.0122
2023-05-22T08:31:32.635Z,59.5098
2023-05-22T08:32:32.894Z,60.0734
2023-05-22T08:33:34.291Z,59.8005
2023-05-22T08:34:35.662Z,59.0899
2023-05-22T08:35:37.387Z,57.5839
2023-05-22T08:36:38.957Z,58.8743
2023-05-22T08:37:40.283Z,58.0985
2023-05-22T08:38:42.041Z,58.2963
2023-05-22T08:39:43.546Z,56.6754
2023-05-22T08:40:47.082Z,57.8658
2023-05-22T08:42:48.575Z,58.2810
2023-05-22T08:43:50.448Z,58.5681
2023-05-22T08:44:51.959Z,57.3300
2023-05-22T08:45:53.526Z,57.7034
2023-05-22T08:46:55.233Z,56.2355
2023-05-22T08:47:57.226Z,55.9162
2023-05-22T08:48:59.258Z,57.9752
2023-05-22T08:50:00.034Z,56.9732
2023-05-22T08:51:00.329Z,57.6031
2023-05-22T08:52:01.777Z,56.0212
2023-05-22T08:53:02.906Z,56.8283
2023-05-22T08:54:03.106Z,54.8153
2023-05-22T08:55:04.574Z,54.4553
2023-05-22T08:56:06.429Z,54.4663
2023-05-22T08:57:08.018Z,55.6072
2023-05-22T08:58:08.669Z,55.5252
2023-05-22T08:59:10.004Z,54.8435
2023-05-22T09:00:10.436Z,54.9037
2023-05-22T09:01:12.334Z,53.1654
2023-05-22T09:02:14.154Z,54.2707
2023-05-22T09:03:15.670Z,54.4623
2023-05-22T09:04:17.558Z,55.2848
2023-05-22T09:05:19.403Z,56.0673
2023-05-22T09:06:21.227Z,56.4663
2023-05-22T09:07:23.020Z,58.0404
2023-05-22T09:08:25.084Z,55.3050
2023-05-22T09:09:26.616Z,56.4855
2023-05-22T09:10:27.077Z,58.0711
2023-05-22T09:11:28.892Z,57.6845
2023-05-22T09:12:30.229Z,56.7014
2023-05-22T09:13:32.077Z,55.7325
2023-05-22T09:14:33.513Z,53.7603
2023-05-22T09:15:35.091Z,54.0564
2023-05-22T09:16:35.824Z,55.9641
2023-05-22T09:20:42.356Z,54.0936
2023-05-22T09:21:42.870Z,56.1271
2023-05-22T09:22:43.733Z,55.4606
2023-05-22T09:23:45.551Z,56.4673
2023-05-22T09:24:47.274Z,56.7096
2023-05-22T09:25:49.244Z,54.9112
2023-05-22T09:26:51.280Z,55.2679
2023-05-22T09:27:52.876Z,56.5443
2023-05-22T09:28:54.278Z,53.7798
2023-05-22T09:30:56.585Z,54.0817
2023-05-22T09:31:56.918Z,54.2662
2023-05-22T09:32:58.937Z,55.2017
2023-05-22T09:33:59.332Z,51.8286
2023-05-22T09:35:01.124Z,51.4328
2023-05-22T09:36:02.129Z,52.7439
2023-05-22T09:37:03.998Z,52.7653
2023-05-22T09:38:05.025Z,53.4637
2023-05-22T09:42:11.409Z,53.1842
2023-05-22T09:43:11.658Z,52.8848
2023-05-22T09:44:12.781Z,51.6950
2023-05-22T09:45:14.139Z,51.2985
2023-05-22T09:46:15.182Z,53.1359
2023-05-22T09:47:17.207Z,52.4611
2023-05-22T09:48:17.392Z,55.5445
2023-05-22T09:49:19.550Z,53.0548
2023-05-22T09:52:23.725Z,53.0413
2023-05-22T09:54:27.302Z,50.3166
2023-05-22T09:55:27.488Z,52.9675
2023-05-22T09:57:29.774Z,53.3553
2023-05-22T09:58:31.492Z,52.7064
2023-05-22T09:59:33.033Z,52.2230
2023-05-22T10:00:34.726Z,52.8206
2023-05-22T10:01:35.264Z,50.5226
2023-05-22T10:02:35.951Z,49.8040
2023-05-22T10:03:37.702Z,48.1031
2023-05-22T10:04:39.775Z,50.4442
2023-05-22T10:05:40.082Z,51.7656
2023-05-22T10:08:44.310Z,50.4239
2023-05-22T10:09:46.345Z,49.1903
2023-05-22T10:10:47.624Z,49.1171
2023-05-22T10:11:49.484Z,51.7531
2023-05-22T10:12:51.361Z,51.2122
2023-05-22T10:13:53.572Z,53.5077
2023-05-22T10:14:54.536Z,52.7748
2023-05-22T10:15:56.426Z,53.4577
2023-05-22T10:16:58.095Z,53.3284
2023-05-22T10:17:59.716Z,52.8492
2023-05-22T10:20:01.173Z,51.8252
2023-05-22T10:21:02.399Z,49.0307
2023-05-22T10:22:02.654Z,48.8127
2023-05-22T10:23:04.314Z,48.2017
2023-05-22T10:24:05.137Z,47.9471
2023-05-22T10:25:10.850Z,47.1927
2023-05-22T10:37:22.778Z,49.5328
2023-05-22T10:38:24.374Z,48.9956
2023-05-22T10:39:24.840Z,48.8372
2023-05-22T10:40:27.450Z,45.9780
2023-05-22T10:41:28.858Z,46.7126
2023-05-22T10:42:30.572Z,47.7748
2023-05-22T10:43:30.639Z,47.9142
2023-05-22T10:44:31.094Z,46.9271
2023-05-22T10:45:32.846Z,46.5419
2023-05-22T10:46:32.830Z,48.7879
2023-05-22T10:47:33.366Z,48.3003
2023-05-22T10:48:34.218Z,47.0610
2023-05-22T10:50:37.113Z,49.4280
2023-05-22T10:51:38.734Z,48.0409
2023-05-22T10:52:40.138Z,47.0642
2023-05-22T10:53:41.883Z,47.5999
2023-05-22T10:56:46.692Z,46.4073
2023-05-22T10:57:48.345Z,49.6911
2023-05-22T10:58:50.163Z,48.3700
2023-05-22T10:59:51.681Z,46.0513
2023-05-22T11:00:53.345Z,44.9066
2023-05-22T11:01:54.300Z,46.6214
2023-05-22T11:12:04.777Z,49.8719
2023-05-22T11:13:05.734Z,48.4486
2023-05-22T11:14:07.655Z,48.5793
2023-05-22T11:15:08.535Z,46.3431
2023-05-22T11:16:09.912Z,44.3352
2023-05-22T11:17:12.860Z,45.4478
2023-05-22T11:21:13.845Z,49.1676
2023-05-22T11:37:32.515Z,48.6995
2023-05-22T11:38:34.176Z,47.7021
2023-05-22T11:39:34.670Z,47.9127
2023-05-22T11:41:36.045Z,48.0080
2023-05-22T11:42:36.385Z,47.6454
2023-05-22T11:43:37.468Z,48.1490
2023-05-22T11:44:39.551Z,46.8802
2023-05-22T11:45:40.592Z,45.3965
2023-05-22T11:46:41.971Z,47.1527
2023-05-22T11:47:43.810Z,44.1331
2023-05-22T11:48:45.837Z,46.2659
2023-05-22T11:49:46.146Z,44.2459
2023-05-22T11:50:48.293Z,43.7823
2023-05-22T11:51:48.888Z,43.6930
2023-05-22T11:52:49.813Z,44.4691
2023-05-22T11:54:51.912Z,44.6748
2023-05-22T11:55:53.032Z,46.9902
2023-05-22T11:56:54.725Z,45.6334
2023-05-22T11:57:56.228Z,47.5653
2023-05-22T11:58:56.428Z,46.4954
2023-05-22T11:59:57.204Z,47.1311
2023-05-22T12:00:57.269Z,44.9350
2023-05-22T12:01:58.289Z,47.1280
2023-05-22T12:03:00.080Z,47.0062
2023-05-22T12:04:00.454Z,47.4952
2023-05-22T12:05:01.554Z,46.8699
2023-05-22T12:06:03.467Z,46.8720
2023-05-22T12:07:04.432Z,47.7414
2023-05-22T12:08:05.041Z,45.0937
2023-05-22T12:11:10.580Z,44.8038
2023-05-22T12:12:11.202Z,43.4668
2023-05-22T12:13:11.241Z,43.4489
2023-05-22T12:15:13.934Z,44.7025
2023-05-22T12:16:14.584Z,46.8255
2023-05-22T12:18:15.068Z,44.4356
2023-05-22T12:19:16.329Z,44.9278
2023-05-22T12:20:18.215Z,42.3083
2023-05-22T12:21:18.794Z,42.8012
2023-05-22T12:22:22.586Z,43.0880
2023-05-22T12:23:20.700Z,40.8942
2023-05-22T12:24:21.542Z,46.0370
2023-05-22T12:25:21.565Z,45.1292
2023-05-22T12:26:23.735Z,44.7155
2023-05-22T12:27:24.898Z,41.3703
2023-05-22T12:28:26.906Z,43.7148
2023-05-22T12:29:28.814Z,42.1255
2023-05-22T12:30:30.719Z,42.0064
2023-05-22T12:31:32.820Z,41.8082
2023-05-22T12:32:33.066Z,42.1189
2023-05-22T12:33:35.088Z,41.9179
2023-05-22T12:34:36.691Z,43.0776
2023-05-22T12:35:38.295Z,42.6858
2023-05-22T12:36:38.538Z,42.3378
2023-05-22T12:37:40.643Z,43.0865
2023-05-22T12:38:41.172Z,44.5232
2023-05-22T12:39:42.142Z,45.4407
2023-05-22T12:40:43.909Z,44.1340
2023-05-22T12:41:44.500Z,41.0171
2023-05-22T12:42:45.570Z,39.8124
2023-05-22T12:47:53.692Z,43.1632
2023-05-22T12:48:55.442Z,43.9390
2023-05-22T12:49:56.815Z,44.0064
2023-05-22T12:50:57.263Z,46.7807
2023-05-22T12:51:57.920Z,46.6147
2023-05-22T12:52:58.053Z,47.1176
2023-05-22T12:53:59.186Z,47.4010
2023-05-22T12:55:00.590Z,44.8606
2023-05-22T12:56:00.908Z,44.4632
2023-05-22T12:57:02.944Z,40.8065
2023-05-22T12:58:02.977Z,40.9598
2023-05-22T13:00:05.312Z,42.4125
2023-05-22T13:01:06.778Z,43.4358
2023-05-22T13:02:08.184Z,43.5163
2023-05-22T13:03:09.897Z,41.5822
2023-05-22T13:04:11.275Z,39.6574
2023-05-22T13:05:11.803Z,40.6473
2023-05-22T13:06:13.380Z,40.9026
2023-05-22T13:07:14.397Z,41.4346
2023-05-22T13:08:14.601Z,41.2349
2023-05-22T13:09:15.081Z,42.7396
2023-05-22T13:10:16.408Z,41.8608
2023-05-22T13:11:17.576Z,40.0908
2023-05-22T13:12:18.031Z,40.9882
2023-05-22T13:13:19.002Z,41.0055
2023-05-22T13:14:20.761Z,42.1501
2023-05-22T13:15:22.356Z,40.0323
2023-05-22T13:16:23.129Z,41.7986
2023-05-22T13:18:25.340Z,40.9156
2023-05-22T13:19:27.574Z,38.4225
2023-05-22T13:20:28.141Z,40.6931
2023-05-22T13:21:29.545Z,38.8656
2023-05-22T13:22:30.149Z,39.5948
2023-05-22T13:23:30.196Z,40.9430
2023-05-22T13:24:30.518Z,40.6839
2023-05-22T13:25:31.194Z,40.9077
2023-05-22T13:26:31.408Z,40.9023
2023-05-22T13:27:34.314Z,40.4018
2023-05-22T13:34:41.230Z,43.9573
2023-05-22T13:37:45.673Z,42.9761
2023-05-22T13:40:48.976Z,43.6241
2023-05-22T13:51:57.949Z,47.7729
2023-05-22T13:52:58.078Z,46.6847
2023-05-22T13:53:58.403Z,41.5897
2023-05-22T13:54:59.928Z,40.2877
2023-05-22T13:56:01.436Z,40.9080
2023-05-22T14:03:09.553Z,37.7762
2023-05-22T14:05:10.201Z,41.6987
2023-05-22T14:06:13.811Z,41.5658
2023-05-22T14:07:13.861Z,42.2061
2023-05-22T14:08:15.708Z,39.8739
2023-05-22T14:09:17.248Z,39.4781
2023-05-22T14:11:20.449Z,45.2845
2023-05-22T14:12:21.166Z,44.2795
2023-05-22T14:13:22.635Z,45.8012
2023-05-22T14:15:26.742Z,47.3337
2023-05-22T14:16:28.109Z,48.8981
2023-05-22T14:17:29.402Z,45.2316
2023-05-22T14:18:30.802Z,44.7625
2023-05-22T14:19:33.395Z,45.0380
2023-05-22T14:20:33.553Z,42.1010
2023-05-22T14:21:35.681Z,42.5553
2023-05-22T14:22:55.895Z,40.0237
2023-05-22T14:26:08.789Z,40.1675
2023-05-22T14:27:11.095Z,43.4842
2023-05-22T14:28:10.976Z,44.5470
2023-05-22T14:29:10.970Z,44.3990
2023-05-22T14:30:12.989Z,44.8635
2023-05-22T14:31:14.331Z,44.4619
2023-05-22T14:32:16.389Z,46.3952
2023-05-22T14:33:17.950Z,45.5878
2023-05-22T14:34:19.684Z,44.8669
2023-05-22T14:35:21.357Z,44.9285
2023-05-22T14:36:21.647Z,43.0684
2023-05-22T14:37:23.155Z,41.5386
2023-05-22T14:38:23.689Z,41.6227
2023-05-22T14:39:25.573Z,41.2215
2023-05-22T14:40:27.143Z,38.8890
2023-05-22T14:41:27.401Z,40.9626
2023-05-22T14:42:28.901Z,39.7325
2023-05-22T14:43:30.207Z,40.9144
2023-05-22T14:44:31.720Z,42.1122
2023-05-22T14:45:33.248Z,39.1471
2023-05-22T14:46:35.091Z,39.9479
2023-05-22T14:47:36.321Z,41.7353
2023-05-22T14:48:37.247Z,41.6873
2023-05-22T14:49:37.973Z,39.3583
2023-05-22T14:50:39.274Z,37.4454
2023-05-22T14:51:40.730Z,37.9506
2023-05-22T14:52:41.152Z,38.1247
2023-05-22T14:53:42.744Z,39.3312
2023-05-22T14:54:44.192Z,37.8040
2023-05-22T14:55:45.536Z,39.4597
2023-05-22T14:56:47.363Z,36.8997
2023-05-22T14:57:48.730Z,39.6357
2023-05-22T14:58:49.695Z,39.9135
2023-05-22T14:59:50.959Z,37.9375
2023-05-22T15:00:52.280Z,38.8975
2023-05-22T15:01:53.927Z,40.4852
2023-05-22T15:02:55.676Z,40.7504
2023-05-22T15:03:57.013Z,41.0737
2023-05-22T15:04:58.785Z,40.2838
2023-05-22T15:05:59.186Z,38.9569
2023-05-22T15:08:02.261Z,40.1370
2023-05-22T15:09:03.872Z,39.3742
2023-05-22T15:10:04.491Z,37.0543
2023-05-22T15:11:05.736Z,37.7260
2023-05-22T15:12:08.467Z,37.2559
2023-05-22T15:14:09.462Z,39.9354
2023-05-22T15:17:13.292Z,39.0043
2023-05-22T15:24:21.361Z,44.6138
2023-05-22T15:25:22.655Z,44.4613
2023-05-22T15:26:23.467Z,45.8350
2023-05-22T15:27:24.820Z,45.6252
2023-05-22T15:30:27.717Z,45.8587
2023-05-22T15:31:29.657Z,46.0286
2023-05-22T15:32:31.328Z,46.3677
2023-05-22T15:33:33.493Z,48.0413
2023-05-22T15:34:35.274Z,45.8557
2023-05-22T15:35:36.625Z,46.1842
2023-05-22T15:36:36.784Z,46.4256
2023-05-22T15:37:37.275Z,46.1938
2023-05-22T15:38:38.824Z,46.6293
2023-05-22T15:39:40.251Z,46.6022
2023-05-22T15:40:42.358Z,46.6690
2023-05-22T15:42:02.413Z,48.3281
2023-05-22T16:11:57.016Z,45.7645
2023-05-22T16:12:58.497Z,43.5779
2023-05-22T16:14:00.636Z,44.7355
2023-05-22T16:20:09.969Z,43.8547
2023-05-22T16:21:11.594Z,40.6205
2023-05-22T16:22:12.674Z,41.9041
2023-05-22T16:23:14.726Z,39.9796
2023-05-22T16:24:16.638Z,39.3180
2023-05-22T16:25:18.560Z,41.2072
2023-05-22T16:26:18.632Z,39.1537
2023-05-22T16:27:20.441Z,39.8704
2023-05-22T16:28:22.268Z,40.3484
2023-05-22T16:29:24.297Z,40.1120
2023-05-22T16:30:26.447Z,41.4227
2023-05-22T16:31:26.607Z,37.9519
2023-05-22T16:32:28.631Z,38.6756
2023-05-22T16:33:28.566Z,41.4268
2023-05-22T16:34:30.703Z,39.1780
2023-05-22T16:35:32.555Z,38.4605
2023-05-22T16:36:34.102Z,37.9964
2023-05-22T16:37:35.587Z,38.3366
2023-05-22T16:38:37.344Z,38.8226
2023-05-22T16:39:39.110Z,39.1846
2023-05-22T16:40:40.941Z,39.4774
2023-05-22T17:02:05.143Z,38.2178
2023-05-22T17:03:07.398Z,36.9869
2023-05-22T17:04:09.127Z,38.4028
2023-05-22T17:05:09.702Z,39.1495
2023-05-22T17:06:11.852Z,39.3308
2023-05-22T17:07:12.165Z,39.7470
2023-05-22T17:08:14.061Z,41.0297
2023-05-22T17:09:16.144Z,41.0349
2023-05-22T17:10:16.577Z,38.5008
2023-05-22T17:14:22.353Z,39.9220
2023-05-22T17:15:22.869Z,38.8264
2023-05-22T17:16:24.860Z,38.4705
2023-05-22T17:17:26.543Z,38.9312
2023-05-22T17:18:28.390Z,39.1562
2023-05-22T17:19:29.229Z,40.2981
2023-05-22T17:20:31.082Z,39.5867
2023-05-22T17:21:33.406Z,40.4498
2023-05-22T17:22:34.266Z,39.9643
2023-05-22T17:23:34.987Z,41.2320
2023-05-22T17:24:35.680Z,43.1668
2023-05-22T17:25:38.001Z,42.2793
2023-05-22T17:26:37.855Z,42.0882
2023-05-22T17:27:37.987Z,41.8826
2023-05-22T17:28:38.056Z,40.1905
2023-05-22T17:29:39.967Z,40.8434
2023-05-22T17:30:40.119Z,41.5201
2023-05-22T17:43:57.514Z,49.5430
2023-05-22T17:44:57.714Z,50.5484
2023-05-22T17:45:58.832Z,51.6087
2023-05-22T17:46:59.552Z,51.2164
2023-05-22T17:47:59.817Z,51.2275
2023-05-22T17:49:01.883Z,51.3257
2023-05-22T17:50:04.057Z,51.0324
2023-05-22T17:51:04.408Z,51.0618
2023-05-22T17:52:05.249Z,52.5531
2023-05-22T17:53:06.962Z,52.5125
2023-05-22T17:54:08.722Z,53.1473
2023-05-22T17:55:10.390Z,53.7615
2023-05-22T17:56:12.629Z,53.5895
2023-05-22T17:57:14.193Z,53.5516
2023-05-22T17:58:14.589Z,54.4740
2023-05-22T17:59:16.453Z,55.3161
2023-05-22T18:00:18.224Z,54.7972
2023-05-22T18:01:19.659Z,55.3643
2023-05-22T18:02:21.119Z,56.2991
2023-05-22T18:03:21.979Z,54.7785
2023-05-22T18:04:21.809Z,55.6725
2023-05-22T18:05:22.951Z,60.5819
2023-05-22T18:06:24.774Z,60.0748
2023-05-22T18:07:25.987Z,56.9388
2023-05-22T18:08:27.405Z,57.0247
2023-05-22T18:09:28.738Z,59.8230
2023-05-22T18:10:29.954Z,58.3991
2023-05-22T18:11:30.961Z,58.3749
2023-05-22T18:12:32.762Z,57.8824
2023-05-22T18:13:33.928Z,62.0189
2023-05-22T18:14:35.462Z,59.9892
2023-05-22T18:15:36.464Z,59.2217
2023-05-22T18:16:36.963Z,58.5705
2023-05-22T18:17:38.299Z,58.1521
2023-05-22T18:18:39.470Z,58.2727
2023-05-22T18:19:40.081Z,58.2752
2023-05-22T18:20:41.934Z,59.6537
2023-05-22T18:24:46.508Z,63.1132
2023-05-22T18:25:57.537Z,62.0675
2023-05-22T18:30:20.813Z,65.3173
2023-05-22T18:31:23.771Z,64.2042
2023-05-22T18:32:23.338Z,65.0298
2023-05-22T18:33:24.775Z,64.8079
2023-05-22T18:34:26.066Z,63.5764
2023-05-22T18:35:27.413Z,61.9851
2023-05-22T18:36:27.788Z,64.6078
2023-05-22T18:42:33.821Z,64.1138
2023-05-22T18:43:35.504Z,65.6651
2023-05-22T18:44:36.912Z,66.5636
2023-05-22T18:45:38.623Z,68.0142
2023-05-22T18:46:40.922Z,68.5618
2023-05-22T18:55:51.214Z,66.0305
2023-05-22T18:56:51.189Z,65.4974
2023-05-22T18:58:51.997Z,68.1527
2023-05-22T18:59:53.179Z,69.5212
2023-05-22T19:00:54.745Z,68.0044
2023-05-22T19:01:57.178Z,69.5932
2023-05-22T19:23:19.722Z,73.5764
2023-05-22T19:26:22.831Z,75.1511
2023-05-22T19:27:23.827Z,76.0024
2023-05-22T19:28:24.882Z,75.0944
2023-05-22T19:29:26.506Z,76.1759
2023-05-22T19:30:27.588Z,76.2825
2023-05-22T19:31:28.870Z,76.9886
2023-05-22T19:32:29.644Z,78.0010
2023-05-22T19:33:30.765Z,77.8363
2023-05-22T19:34:31.900Z,77.5429
2023-05-22T19:35:33.238Z,78.4909
2023-05-22T19:36:34.870Z,79.0243
2023-05-22T19:37:39.714Z,77.8035
2023-05-22T19:40:08.711Z,77.2576
2023-05-22T19:47:19.020Z,80.1453
2023-05-22T19:48:18.881Z,80.4011
2023-05-22T20:01:35.433Z,80.4007
2023-05-22T20:03:38.079Z,80.9814
2023-05-22T20:10:45.854Z,83.0809
2023-05-22T20:11:46.926Z,81.7079
2023-05-22T20:18:54.592Z,81.3519
2023-05-22T20:20:56.127Z,81.9699
2023-05-22T20:21:58.133Z,82.0020
2023-05-22T20:22:59.620Z,81.6728
2023-05-22T20:24:02.171Z,82.2207
2023-05-22T20:25:04.032Z,81.0138
2023-05-22T20:34:13.078Z,81.2454
2023-05-22T20:35:15.221Z,81.3127
2023-05-22T20:38:17.382Z,79.4957
2023-05-22T20:39:19.041Z,80.4482
2023-05-22T20:40:20.038Z,81.0705
2023-05-22T20:41:21.306Z,80.5822
2023-05-22T20:42:23.286Z,80.8691
2023-05-22T20:43:24.768Z,81.0442
2023-05-22T20:56:41.827Z,81.8401
2023-05-22T20:57:43.723Z,81.8891
2023-05-22T20:58:45.680Z,82.4885
2023-05-22T20:59:46.811Z,83.1760
2023-05-22T21:00:48.326Z,83.3667
2023-05-22T21:01:49.458Z,82.9495
2023-05-22T21:02:50.736Z,83.1235
2023-05-22T21:03:52.024Z,83.6638
2023-05-22T21:04:53.483Z,83.9354
2023-05-22T21:05:54.590Z,83.9514
2023-05-22T21:06:55.355Z,83.4761
2023-05-22T21:07:56.509Z,83.8862
2023-05-22T21:08:57.855Z,84.7147
2023-05-22T21:09:59.600Z,85.4562
2023-05-22T21:11:00.271Z,85.9372
2023-05-22T21:12:01.500Z,86.1865
2023-05-22T21:13:01.889Z,86.7376
2023-05-22T21:14:03.010Z,87.6670
2023-05-22T21:15:03.536Z,87.5423
2023-05-22T21:16:04.653Z,88.0214
2023-05-22T21:17:08.426Z,88.6478
2023-05-22T21:25:16.288Z,86.5206
2023-05-22T21:26:17.758Z,85.7261
2023-05-22T21:27:19.614Z,85.8762
2023-05-22T21:28:20.548Z,86.8651
2023-05-22T21:30:23.160Z,87.7504
2023-05-22T21:31:24.199Z,87.6015
2023-05-22T21:32:25.207Z,86.8288
2023-05-22T21:33:26.419Z,85.2943
2023-05-22T21:34:27.375Z,85.0848
2023-05-22T21:38:32.836Z,87.4701
2023-05-22T21:39:35.096Z,87.6478
2023-05-22T21:40:34.887Z,87.8603
2023-05-22T21:42:46.683Z,86.6337
2023-05-22T21:47:11.622Z,85.3512
2023-05-22T21:48:13.307Z,85.1842
2023-05-22T21:57:25.590Z,85.7781
2023-05-22T21:58:27.467Z,86.0527
2023-05-22T21:59:28.642Z,86.0855
2023-05-22T22:00:29.716Z,85.7199
2023-05-22T22:01:31.563Z,85.3574
2023-05-22T22:02:33.075Z,84.9411
2023-05-22T22:04:35.618Z,84.3106
2023-05-22T22:05:37.732Z,83.8937
2023-05-22T22:06:39.349Z,83.8728